createdAt,value
2019-05-10T00:02:26.306Z,11.37
2019-05-10T00:04:55.007Z,11.25
2019-05-10T00:07:23.632Z,10.94
2019-05-10T00:09:50.419Z,10.89
2019-05-10T00:12:18.944Z,10.69
2019-05-10T00:14:47.673Z,10.65
2019-05-10T00:18:10.922Z,10.53
2019-05-10T00:20:37.487Z,10.53
2019-05-10T00:23:04.257Z,10.67
2019-05-10T00:25:30.832Z,10.57
2019-05-10T00:27:57.527Z,10.48
2019-05-10T00:30:24.229Z,10.50
2019-05-10T00:32:50.867Z,10.46
2019-05-10T00:35:17.641Z,10.42
2019-05-10T00:37:44.184Z,10.27
2019-05-10T00:40:11.218Z,10.41
2019-05-10T00:42:37.874Z,10.32
2019-05-10T00:45:06.231Z,10.20
2019-05-10T00:47:32.902Z,10.14
2019-05-10T00:49:59.470Z,10.22
2019-05-10T00:52:26.027Z,10.24
2019-05-10T00:54:52.644Z,10.29
2019-05-10T00:57:19.237Z,10.19
2019-05-10T00:59:45.858Z,10.18
2019-05-10T01:02:12.458Z,10.06
2019-05-10T01:04:39.034Z,9.92
2019-05-10T01:07:05.880Z,9.94
2019-05-10T01:09:32.464Z,10.06
2019-05-10T01:11:59.052Z,10.05
2019-05-10T01:14:26.928Z,9.99
2019-05-10T01:16:54.322Z,9.87
2019-05-10T01:19:20.991Z,9.80
2019-05-10T01:21:47.622Z,9.88
2019-05-10T01:24:14.342Z,9.84
2019-05-10T01:26:41.199Z,9.92
2019-05-10T01:29:08.070Z,9.86
2019-05-10T01:31:34.692Z,9.97
2019-05-10T01:34:01.282Z,9.88
2019-05-10T01:36:28.016Z,9.95
2019-05-10T01:38:54.766Z,9.93
2019-05-10T01:41:21.385Z,10.02
2019-05-10T01:43:47.970Z,9.90
2019-05-10T01:46:14.719Z,10.06
2019-05-10T01:48:41.317Z,9.94
2019-05-10T01:51:08.268Z,10.00
2019-05-10T01:53:35.007Z,10.05
2019-05-10T01:56:01.589Z,9.82
2019-05-10T01:58:28.235Z,10.03
2019-05-10T02:00:54.874Z,10.03
2019-05-10T02:03:21.501Z,9.98
2019-05-10T02:05:49.247Z,10.28
2019-05-10T02:08:15.985Z,10.18
2019-05-10T02:10:42.526Z,10.20
2019-05-10T02:13:09.415Z,10.32
2019-05-10T02:15:36.191Z,10.29
2019-05-10T02:18:03.774Z,10.23
2019-05-10T02:20:30.326Z,9.91
2019-05-10T02:22:57.041Z,9.94
2019-05-10T02:25:23.619Z,9.88
2019-05-10T02:27:50.327Z,9.82
2019-05-10T02:30:20.976Z,9.93
2019-05-10T02:32:47.520Z,9.97
2019-05-10T02:35:15.997Z,9.91
2019-05-10T02:37:42.814Z,9.89
2019-05-10T02:40:11.191Z,9.72
2019-05-10T02:42:37.967Z,9.77
2019-05-10T02:45:06.934Z,9.89
2019-05-10T02:47:33.599Z,9.89
2019-05-10T02:50:00.179Z,9.77
2019-05-10T02:52:26.932Z,9.71
2019-05-10T02:54:54.032Z,9.74
2019-05-10T02:57:21.632Z,9.74
2019-05-10T02:59:49.606Z,9.70
2019-05-10T03:02:20.301Z,9.72
2019-05-10T03:04:48.635Z,9.84
2019-05-10T03:07:16.785Z,9.85
2019-05-10T03:09:47.361Z,10.01
2019-05-10T03:12:19.759Z,9.82
2019-05-10T03:14:51.933Z,9.90
2019-05-10T03:17:18.893Z,9.87
2019-05-10T03:19:49.742Z,9.86
2019-05-10T03:22:17.134Z,9.84
2019-05-10T03:24:43.828Z,10.06
2019-05-10T03:27:10.591Z,9.94
2019-05-10T03:29:38.574Z,10.02
2019-05-10T03:32:05.436Z,10.05
2019-05-10T03:34:32.519Z,10.19
2019-05-10T03:36:59.272Z,10.19
2019-05-10T03:39:26.007Z,9.91
2019-05-10T03:41:52.684Z,10.05
2019-05-10T03:44:19.534Z,9.89
2019-05-10T03:46:46.141Z,10.01
2019-05-10T03:49:12.681Z,10.17
2019-05-10T03:51:39.369Z,10.10
2019-05-10T03:54:06.231Z,9.96
2019-05-10T03:56:32.881Z,10.10
2019-05-10T03:58:59.472Z,10.21
2019-05-10T04:01:26.278Z,10.31
2019-05-10T04:03:52.951Z,10.47
2019-05-10T04:06:19.942Z,10.44
2019-05-10T04:08:47.752Z,10.61
2019-05-10T04:11:14.464Z,10.70
2019-05-10T04:13:41.230Z,10.86
2019-05-10T04:16:07.922Z,10.62
2019-05-10T04:18:34.585Z,10.66
2019-05-10T04:21:01.433Z,10.55
2019-05-10T04:23:28.009Z,10.65
2019-05-10T04:25:54.593Z,10.89
2019-05-10T04:28:21.118Z,10.96
2019-05-10T04:30:47.683Z,10.92
2019-05-10T04:33:14.386Z,11.11
2019-05-10T04:35:41.251Z,11.20
2019-05-10T04:38:08.046Z,11.24
2019-05-10T04:40:34.675Z,11.00
2019-05-10T04:43:01.238Z,11.16
2019-05-10T04:45:27.797Z,11.28
2019-05-10T04:47:54.555Z,11.09
2019-05-10T04:50:21.146Z,11.35
2019-05-10T04:52:47.682Z,11.32
2019-05-10T04:55:14.283Z,11.30
2019-05-10T04:57:49.891Z,11.32
2019-05-10T05:00:10.181Z,11.51
2019-05-10T05:02:37.086Z,11.62
2019-05-10T05:05:05.285Z,11.76
2019-05-10T05:07:31.947Z,11.68
2019-05-10T05:09:58.533Z,11.79
2019-05-10T05:12:25.113Z,11.90
2019-05-10T05:14:51.835Z,12.00
2019-05-10T05:17:18.659Z,11.98
2019-05-10T05:19:45.428Z,12.07
2019-05-10T05:22:12.128Z,12.17
2019-05-10T05:24:38.669Z,12.19
2019-05-10T05:27:05.354Z,12.19
2019-05-10T05:29:32.013Z,12.20
2019-05-10T05:32:01.149Z,12.08
2019-05-10T05:34:27.185Z,11.84
2019-05-10T05:36:53.943Z,12.22
2019-05-10T05:39:20.607Z,12.32
2019-05-10T05:41:49.696Z,12.41
2019-05-10T05:44:20.227Z,12.21
2019-05-10T05:46:44.594Z,12.41
2019-05-10T05:49:11.240Z,12.51
2019-05-10T05:51:37.844Z,12.54
2019-05-10T05:54:04.761Z,12.56
2019-05-10T05:56:31.598Z,12.59
2019-05-10T05:58:58.252Z,12.60
2019-05-10T06:01:28.891Z,12.53
2019-05-10T06:03:53.506Z,12.63
2019-05-10T06:06:23.173Z,12.83
2019-05-10T06:08:48.863Z,12.86
2019-05-10T06:11:15.446Z,12.65
2019-05-10T06:13:42.082Z,12.67
2019-05-10T06:16:12.958Z,13.03
2019-05-10T06:18:41.752Z,13.05
2019-05-10T06:21:06.040Z,12.91
2019-05-10T06:23:35.227Z,12.92
2019-05-10T06:26:01.552Z,12.91
2019-05-10T06:28:56.299Z,12.87
2019-05-10T06:30:57.464Z,13.05
2019-05-10T06:33:24.074Z,13.06
2019-05-10T06:35:50.808Z,13.04
2019-05-10T06:38:17.372Z,12.92
2019-05-10T06:40:47.326Z,12.99
2019-05-10T06:43:13.271Z,13.16
2019-05-10T06:45:41.343Z,13.10
2019-05-10T06:48:07.982Z,13.25
2019-05-10T06:50:34.587Z,13.33
2019-05-10T06:53:08.000Z,13.36
2019-05-10T06:55:29.872Z,13.49
2019-05-10T06:58:00.526Z,13.43
2019-05-10T07:00:25.095Z,13.62
2019-05-10T07:02:51.668Z,13.53
2019-05-10T07:05:18.369Z,13.74
2019-05-10T07:07:45.659Z,13.68
2019-05-10T07:10:19.050Z,13.78
2019-05-10T07:12:41.591Z,13.86
2019-05-10T07:15:09.694Z,13.86
2019-05-10T07:17:41.320Z,13.79
2019-05-10T07:20:07.281Z,13.86
2019-05-10T07:22:34.252Z,13.76
2019-05-10T07:25:07.507Z,13.86
2019-05-10T07:27:38.203Z,13.84
2019-05-10T07:30:06.201Z,13.69
2019-05-10T07:32:32.989Z,13.85
2019-05-10T07:35:01.024Z,13.91
2019-05-10T07:37:29.105Z,13.85
2019-05-10T07:39:55.782Z,14.00
2019-05-10T07:42:22.394Z,14.25
2019-05-10T07:44:49.118Z,14.19
2019-05-10T07:47:15.688Z,14.39
2019-05-10T07:49:42.264Z,14.60
2019-05-10T07:52:09.047Z,14.55
2019-05-10T07:54:37.539Z,14.26
2019-05-10T07:57:04.261Z,14.53
2019-05-10T07:59:49.553Z,14.56
2019-05-10T08:02:05.760Z,14.47
2019-05-10T08:04:33.568Z,14.46
2019-05-10T08:06:59.683Z,14.56
2019-05-10T08:09:26.580Z,14.41
2019-05-10T08:11:53.882Z,14.46
2019-05-10T08:14:25.095Z,14.71
2019-05-10T08:16:58.383Z,14.92
2019-05-10T08:19:19.300Z,15.11
2019-05-10T08:21:48.805Z,15.29
2019-05-10T08:24:16.664Z,15.02
2019-05-10T08:26:43.238Z,15.15
2019-05-10T08:29:15.154Z,15.15
2019-05-10T08:31:40.794Z,15.15
2019-05-10T08:34:08.259Z,15.53
2019-05-10T08:36:37.290Z,15.62
2019-05-10T08:39:10.601Z,15.54
2019-05-10T08:41:37.257Z,15.44
2019-05-10T08:44:04.890Z,15.17
2019-05-10T08:46:40.150Z,14.99
2019-05-10T08:49:02.112Z,14.88
2019-05-10T08:51:32.268Z,14.77
2019-05-10T08:53:59.197Z,14.71
2019-05-10T08:56:27.024Z,14.77
2019-05-10T08:58:53.945Z,14.93
2019-05-10T09:01:29.696Z,14.70
2019-05-10T09:03:55.070Z,14.61
2019-05-10T09:06:18.069Z,14.50
2019-05-10T09:08:44.708Z,14.46
2019-05-10T09:11:11.265Z,14.40
2019-05-10T09:13:41.565Z,14.24
2019-05-10T09:16:06.575Z,14.23
2019-05-10T09:18:38.093Z,14.18
2019-05-10T09:21:08.532Z,14.25
2019-05-10T09:23:32.677Z,14.22
2019-05-10T09:26:03.592Z,14.12
2019-05-10T09:28:29.080Z,14.15
2019-05-10T09:31:00.642Z,14.23
2019-05-10T09:33:24.104Z,14.13
2019-05-10T09:35:54.701Z,14.14
2019-05-10T09:38:19.324Z,14.33
2019-05-10T09:40:51.148Z,14.31
2019-05-10T09:43:15.032Z,14.02
2019-05-10T09:45:42.465Z,14.14
2019-05-10T09:48:11.877Z,14.16
2019-05-10T09:50:44.338Z,14.20
2019-05-10T09:53:09.090Z,14.11
2019-05-10T09:55:36.937Z,14.12
2019-05-10T09:58:03.817Z,14.14
2019-05-10T10:00:33.953Z,14.10
2019-05-10T10:03:01.923Z,14.10
2019-05-10T10:05:29.345Z,14.20
2019-05-10T10:07:57.836Z,14.17
2019-05-10T10:13:13.584Z,14.20
2019-05-10T10:15:37.236Z,14.10
2019-05-10T10:18:04.409Z,14.20
2019-05-10T10:20:35.960Z,14.14
2019-05-10T10:23:01.815Z,14.15
2019-05-10T10:25:30.000Z,14.14
2019-05-10T10:27:57.808Z,14.36
2019-05-10T10:30:27.113Z,14.43
2019-05-10T10:32:53.584Z,14.64
2019-05-10T10:35:26.494Z,14.56
2019-05-10T10:37:49.074Z,14.80
2019-05-10T10:40:18.348Z,15.04
2019-05-10T10:42:47.291Z,15.26
2019-05-10T10:45:13.987Z,15.42
2019-05-10T10:47:40.866Z,15.35
2019-05-10T10:50:13.164Z,15.19
2019-05-10T10:52:37.742Z,15.47
2019-05-10T10:55:11.275Z,15.58
2019-05-10T10:57:37.402Z,15.38
2019-05-10T11:00:08.474Z,15.52
2019-05-10T11:02:35.107Z,15.52
2019-05-10T11:05:04.780Z,15.63
2019-05-10T11:07:33.796Z,15.64
2019-05-10T11:10:08.049Z,15.62
2019-05-10T11:12:30.657Z,15.22
2019-05-10T11:14:57.242Z,15.46
2019-05-10T11:17:23.815Z,15.56
2019-05-10T11:19:50.396Z,15.48
2019-05-10T11:22:18.238Z,15.56
2019-05-10T11:24:44.835Z,15.47
2019-05-10T11:27:15.842Z,15.53
2019-05-10T11:29:41.856Z,15.49
2019-05-10T11:32:15.885Z,15.42
2019-05-10T11:34:38.803Z,15.38
2019-05-10T11:37:05.885Z,15.31
2019-05-10T11:39:40.749Z,15.48
2019-05-10T11:42:06.968Z,15.76
2019-05-10T11:44:31.649Z,15.78
2019-05-10T11:46:58.508Z,15.89
2019-05-10T11:49:25.143Z,16.14
2019-05-10T11:51:55.011Z,15.96
2019-05-10T11:54:21.546Z,15.94
2019-05-10T11:56:48.270Z,15.58
2019-05-10T11:59:16.510Z,15.60
2019-05-10T12:01:43.392Z,15.75
2019-05-10T12:04:23.879Z,15.56
2019-05-10T12:06:41.356Z,15.18
2019-05-10T12:09:12.319Z,15.18
2019-05-10T12:11:43.071Z,15.34
2019-05-10T12:14:05.883Z,15.28
2019-05-10T12:16:33.524Z,15.13
2019-05-10T12:19:06.523Z,15.31
2019-05-10T12:21:32.238Z,15.03
2019-05-10T12:24:10.334Z,15.06
2019-05-10T12:28:54.809Z,15.12
2019-05-10T12:31:23.550Z,15.06
2019-05-10T12:33:50.725Z,14.93
2019-05-10T12:36:23.535Z,14.73
2019-05-10T12:38:46.066Z,14.92
2019-05-10T12:41:12.817Z,14.82
2019-05-10T12:43:43.245Z,14.89
2019-05-10T12:46:10.341Z,14.90
2019-05-10T12:48:37.883Z,14.96
2019-05-10T12:51:11.240Z,15.05
2019-05-10T12:53:36.631Z,15.04
2019-05-10T12:56:01.643Z,15.13
2019-05-10T12:58:28.204Z,15.16
2019-05-10T13:00:54.878Z,15.31
2019-05-10T13:03:25.163Z,15.27
2019-05-10T13:05:52.830Z,15.46
2019-05-10T13:08:18.791Z,15.46
2019-05-10T13:10:49.437Z,15.43
2019-05-10T13:13:17.484Z,15.69
2019-05-10T13:15:43.163Z,15.70
2019-05-10T13:18:09.845Z,15.74
2019-05-10T13:20:38.685Z,15.86
2019-05-10T13:23:10.126Z,15.74
2019-05-10T13:25:33.982Z,15.88
2019-05-10T13:28:00.625Z,15.88
2019-05-10T13:30:28.530Z,16.06
2019-05-10T13:32:58.578Z,16.00
2019-05-10T13:35:24.646Z,15.93
2019-05-10T13:37:51.320Z,15.58
2019-05-10T13:40:18.134Z,15.54
2019-05-10T13:42:46.002Z,15.79
2019-05-10T13:45:13.263Z,15.95
2019-05-10T13:47:39.857Z,16.15
2019-05-10T13:50:09.023Z,15.88
2019-05-10T13:52:38.892Z,15.96
2019-05-10T13:55:05.456Z,16.04
2019-05-10T13:57:32.140Z,16.26
2019-05-10T14:00:02.027Z,16.49
2019-05-10T14:02:32.493Z,16.17
2019-05-10T14:04:55.796Z,16.29
2019-05-10T14:07:22.463Z,16.61
2019-05-10T14:09:52.106Z,16.46
2019-05-10T14:12:23.225Z,16.31
2019-05-10T14:14:47.275Z,16.48
2019-05-10T14:17:14.508Z,16.21
2019-05-10T14:19:41.419Z,16.37
2019-05-10T14:22:08.176Z,16.63
2019-05-10T14:24:35.095Z,16.65
2019-05-10T14:27:01.665Z,16.74
2019-05-10T14:29:34.801Z,16.63
2019-05-10T14:31:58.219Z,16.54
2019-05-10T14:34:24.826Z,16.60
2019-05-10T14:36:51.409Z,16.56
2019-05-10T14:39:18.062Z,16.70
2019-05-10T14:41:45.171Z,16.80
2019-05-10T14:44:13.217Z,16.83
2019-05-10T14:46:40.003Z,17.02
2019-05-10T14:49:09.888Z,16.80
2019-05-10T14:51:49.416Z,16.96
2019-05-10T14:54:06.647Z,17.54
2019-05-10T14:56:33.662Z,17.55
2019-05-10T14:59:00.238Z,17.91
2019-05-10T15:01:26.816Z,17.98
2019-05-10T15:03:53.477Z,18.65
2019-05-10T15:06:21.283Z,18.75
2019-05-10T15:08:47.814Z,18.46
2019-05-10T15:11:14.395Z,18.30
2019-05-10T15:13:40.988Z,18.06
2019-05-10T15:16:12.630Z,18.18
2019-05-10T15:18:36.328Z,18.42
2019-05-10T15:21:03.278Z,18.21
2019-05-10T15:23:29.883Z,17.87
2019-05-10T15:26:03.607Z,17.54
2019-05-10T15:28:25.123Z,18.02
2019-05-10T15:30:52.633Z,17.98
2019-05-10T15:33:20.050Z,17.49
2019-05-10T15:35:51.927Z,17.74
2019-05-10T15:38:16.977Z,18.05
2019-05-10T15:40:44.672Z,18.24
2019-05-10T15:43:16.849Z,18.06
2019-05-10T15:45:46.115Z,17.75
2019-05-10T15:48:09.758Z,18.17
2019-05-10T15:50:38.474Z,18.11
2019-05-10T15:53:04.863Z,17.81
2019-05-10T15:55:31.486Z,18.10
2019-05-10T15:58:00.080Z,17.56
2019-05-10T16:00:37.415Z,17.15
2019-05-10T16:02:57.521Z,17.51
2019-05-10T16:05:41.326Z,17.70
2019-05-10T16:07:53.196Z,17.38
2019-05-10T16:10:20.008Z,17.18
2019-05-10T16:12:46.611Z,17.48
2019-05-10T16:15:20.095Z,17.36
2019-05-10T16:17:42.582Z,17.61
2019-05-10T16:20:09.739Z,17.60
2019-05-10T16:22:36.570Z,17.67
2019-05-10T16:25:05.642Z,17.34
2019-05-10T16:27:34.088Z,16.99
2019-05-10T16:30:01.002Z,16.86
2019-05-10T16:32:34.753Z,16.87
2019-05-10T16:35:05.985Z,16.77
2019-05-10T16:37:29.802Z,16.72
2019-05-10T16:39:56.734Z,16.70
2019-05-10T16:42:27.670Z,16.45
2019-05-10T16:44:52.154Z,16.16
2019-05-10T16:47:18.758Z,16.41
2019-05-10T16:49:47.771Z,16.19
2019-05-10T16:52:14.161Z,16.13
2019-05-10T16:54:40.859Z,15.91
2019-05-10T16:57:07.800Z,15.73
2019-05-10T16:59:35.337Z,15.62
2019-05-10T17:02:06.131Z,15.75
2019-05-10T17:04:36.979Z,15.67
2019-05-10T17:06:59.770Z,15.50
2019-05-10T17:09:27.406Z,15.59
2019-05-10T17:11:54.334Z,15.32
2019-05-10T17:14:20.936Z,15.30
2019-05-10T17:16:49.553Z,15.14
2019-05-10T17:19:16.355Z,15.15
2019-05-10T17:21:42.957Z,15.13
2019-05-10T17:24:09.636Z,15.03
2019-05-10T17:26:36.244Z,14.91
2019-05-10T17:29:07.260Z,14.66
2019-05-10T17:31:31.411Z,14.47
2019-05-10T17:33:57.991Z,14.38
2019-05-10T17:36:24.805Z,14.22
2019-05-10T17:38:53.495Z,14.20
2019-05-10T17:41:25.020Z,14.37
2019-05-10T17:43:48.628Z,14.29
2019-05-10T17:46:18.744Z,14.25
2019-05-10T17:48:47.486Z,14.22
2019-05-10T17:51:12.684Z,13.89
2019-05-10T17:53:39.237Z,13.79
2019-05-10T17:56:05.869Z,13.83
2019-05-10T17:58:33.923Z,13.61
2019-05-10T18:01:01.227Z,13.66
2019-05-10T18:03:27.818Z,13.59
2019-05-10T18:05:54.724Z,13.25
2019-05-10T18:08:21.398Z,13.18
2019-05-10T18:10:47.955Z,13.09
2019-05-10T18:13:14.636Z,13.01
2019-05-10T18:15:41.341Z,13.12
2019-05-10T18:18:08.106Z,13.13
2019-05-10T18:20:41.806Z,12.69
2019-05-10T18:23:04.417Z,12.76
2019-05-10T18:25:31.293Z,12.74
2019-05-10T18:27:57.901Z,12.62
2019-05-10T18:30:24.499Z,12.66
2019-05-10T18:32:51.219Z,12.34
2019-05-10T18:35:17.997Z,12.40
2019-05-10T18:37:45.650Z,12.42
2019-05-10T18:40:15.428Z,12.18
2019-05-10T18:42:42.015Z,12.16
2019-05-10T18:45:11.235Z,12.36
2019-05-10T18:47:37.931Z,12.32
2019-05-10T18:50:05.891Z,12.28
2019-05-10T18:52:39.127Z,12.19
2019-05-10T18:55:07.656Z,11.73
2019-05-10T18:57:34.417Z,11.54
2019-05-10T19:00:01.324Z,11.48
2019-05-10T19:02:29.291Z,11.26
2019-05-10T19:04:56.202Z,11.29
2019-05-10T19:07:23.412Z,11.18
2019-05-10T19:09:50.099Z,11.07
2019-05-10T19:12:18.868Z,10.98
2019-05-10T19:14:45.240Z,10.85
2019-05-10T19:17:11.969Z,10.85
2019-05-10T19:19:42.178Z,11.00
2019-05-10T19:22:09.301Z,10.74
2019-05-10T19:24:38.477Z,10.73
2019-05-10T19:27:07.209Z,10.91
2019-05-10T19:29:38.758Z,10.71
2019-05-10T19:32:02.453Z,10.68
2019-05-10T19:34:29.215Z,10.47
2019-05-10T19:36:55.904Z,10.42
2019-05-10T19:39:23.004Z,10.44
2019-05-10T19:41:49.925Z,10.56
2019-05-10T19:44:16.635Z,10.80
2019-05-10T19:46:43.609Z,10.82
2019-05-10T19:49:22.731Z,10.74
2019-05-10T19:51:52.079Z,10.34
2019-05-10T19:54:21.078Z,10.24
2019-05-10T19:56:47.738Z,10.06
2019-05-10T19:59:14.492Z,10.26
2019-05-10T20:01:44.946Z,10.42
2019-05-10T20:04:10.638Z,10.36
2019-05-10T20:06:37.344Z,10.38
2019-05-10T20:09:06.427Z,10.29
2019-05-10T20:11:33.558Z,9.98
2019-05-10T20:14:00.234Z,10.02
2019-05-10T20:16:27.036Z,10.31
2019-05-10T20:18:54.571Z,10.02
2019-05-10T20:21:22.587Z,9.68
2019-05-10T20:23:49.239Z,9.68
2019-05-10T20:26:16.379Z,9.69
2019-05-10T20:28:43.109Z,9.71
2019-05-10T20:31:10.792Z,9.98
2019-05-10T20:33:37.519Z,10.02
2019-05-10T20:36:04.650Z,9.98
2019-05-10T20:38:31.619Z,9.47
2019-05-10T20:40:58.243Z,9.41
2019-05-10T20:43:25.248Z,9.41
2019-05-10T20:45:51.924Z,9.44
2019-05-10T20:48:18.564Z,9.35
2019-05-10T20:50:45.577Z,9.48
2019-05-10T20:53:12.170Z,9.52
2019-05-10T20:55:38.784Z,9.67
2019-05-10T20:58:05.721Z,9.22
2019-05-10T21:00:32.881Z,9.05
2019-05-10T21:02:59.459Z,9.00
2019-05-10T21:05:26.068Z,8.91
2019-05-10T21:07:54.111Z,8.95
2019-05-10T21:10:20.888Z,8.95
2019-05-10T21:12:47.780Z,9.13
2019-05-10T21:15:14.606Z,9.15
2019-05-10T21:17:41.341Z,9.14
2019-05-10T21:20:09.463Z,9.32
2019-05-10T21:22:36.231Z,9.03
2019-05-10T21:25:05.955Z,9.26
2019-05-10T21:27:33.399Z,9.06
2019-05-10T21:30:00.216Z,9.04
2019-05-10T21:32:27.140Z,8.96
2019-05-10T21:34:53.812Z,9.02
2019-05-10T21:37:20.885Z,9.21
2019-05-10T21:39:47.642Z,9.33
2019-05-10T21:42:14.533Z,9.29
2019-05-10T21:44:42.284Z,9.24
2019-05-10T21:47:09.099Z,9.35
2019-05-10T21:49:35.907Z,9.36
2019-05-10T21:52:02.598Z,9.36
2019-05-10T21:54:29.395Z,9.65
2019-05-10T21:56:56.152Z,9.58
2019-05-10T21:59:22.747Z,9.38
2019-05-10T22:01:51.495Z,9.52
2019-05-10T22:04:18.231Z,9.60
2019-05-10T22:06:44.931Z,9.31
2019-05-10T22:09:11.556Z,9.36
2019-05-10T22:11:38.371Z,9.40
2019-05-10T22:14:05.299Z,9.23
2019-05-10T22:16:31.896Z,9.08
2019-05-10T22:19:00.371Z,9.48
2019-05-10T22:21:27.278Z,9.29
2019-05-10T22:23:53.830Z,9.44
2019-05-10T22:26:20.423Z,9.59
2019-05-10T22:28:47.045Z,9.53
2019-05-10T22:31:13.615Z,9.15
2019-05-10T22:33:40.156Z,9.36
2019-05-10T22:36:06.789Z,9.09
2019-05-10T22:38:33.400Z,9.05
2019-05-10T22:41:00.018Z,9.08
2019-05-10T22:43:26.734Z,8.93
2019-05-10T22:45:53.383Z,9.00
2019-05-10T22:48:19.928Z,8.94
2019-05-10T22:50:46.563Z,8.74
2019-05-10T22:53:13.286Z,8.61
2019-05-10T22:55:39.952Z,8.73
2019-05-10T22:58:06.680Z,8.79
2019-05-10T23:00:33.696Z,8.59
2019-05-10T23:03:00.346Z,8.68
2019-05-10T23:05:27.242Z,8.88
2019-05-10T23:07:53.926Z,8.87
2019-05-10T23:10:20.513Z,8.78
2019-05-10T23:12:47.078Z,8.66
2019-05-10T23:15:14.366Z,8.69
2019-05-10T23:17:41.083Z,8.71
2019-05-10T23:20:07.935Z,8.65
2019-05-10T23:22:37.711Z,8.64
2019-05-10T23:25:05.893Z,8.40
2019-05-10T23:27:32.732Z,8.38
2019-05-10T23:29:59.435Z,8.33
2019-05-10T23:32:25.991Z,8.40
2019-05-10T23:34:54.505Z,8.33
2019-05-10T23:37:21.108Z,8.41
2019-05-10T23:39:47.949Z,8.50
2019-05-10T23:42:14.711Z,8.30
2019-05-10T23:44:41.347Z,8.52
2019-05-10T23:47:10.106Z,8.64
2019-05-10T23:49:36.738Z,8.40
2019-05-10T23:52:03.817Z,8.43
2019-05-10T23:54:30.888Z,8.56
2019-05-10T23:56:57.533Z,8.71
2019-05-10T23:59:24.095Z,8.48
